Time;durP1;ratioP1;P1;durP2;ratioP2;P2;SDS_P1;SDS_P2;PMS_P1;PMS_P2;Temp;Humidity;BMP_temperature;BMP_pressure;BME280_temperature;BME280_humidity;BME280_pressure;Samples;Min_cycle;Max_cycle;Signal;HPM_P1;HPM_P2
2023/09/26 00:00:15;;;;;;;1.60;1.60;;;21.20;75.20;;;;;;5068113;28;43339;-72
2023/09/26 00:02:43;;;;;;;1.60;1.60;;;21.10;75.10;;;;;;5078740;28;43446;-71
2023/09/26 00:05:11;;;;;;;1.63;1.63;;;21.10;75.40;;;;;;5073196;28;43381;-72
2023/09/26 00:07:40;;;;;;;1.67;1.67;;;21.00;75.60;;;;;;5071929;28;43599;-73
2023/09/26 00:10:10;;;;;;;1.70;1.70;;;21.10;75.50;;;;;;5073241;28;44062;-72
2023/09/26 00:12:38;;;;;;;1.50;1.50;;;21.20;75.20;;;;;;5059142;28;43395;-72
2023/09/26 00:15:09;;;;;;;1.60;1.60;;;21.20;75.00;;;;;;5057692;28;43492;-71
2023/09/26 00:17:37;;;;;;;1.50;1.50;;;21.20;74.90;;;;;;5066038;28;43621;-72
2023/09/26 00:20:15;;;;;;;1.73;1.73;;;21.20;75.20;;;;;;5079717;28;43975;-72
2023/09/26 00:22:43;;;;;;;1.70;1.70;;;21.20;75.30;;;;;;5066192;28;44019;-72
2023/09/26 00:25:11;;;;;;;1.60;1.60;;;21.20;75.20;;;;;;5082030;28;44015;-71
2023/09/26 00:27:39;;;;;;;1.50;1.50;;;21.10;75.10;;;;;;5062336;28;43935;-72
2023/09/26 00:30:09;;;;;;;1.63;1.63;;;21.10;75.20;;;;;;5081929;28;43377;-72
2023/09/26 00:32:38;;;;;;;1.60;1.60;;;21.10;75.60;;;;;;5085371;28;43466;-72
2023/09/26 00:35:11;;;;;;;1.70;1.70;;;21.10;75.60;;;;;;5053163;28;43392;-72
2023/09/26 00:37:40;;;;;;;1.60;1.60;;;21.10;75.50;;;;;;5075691;28;43911;-72
2023/09/26 00:40:14;;;;;;;1.60;1.60;;;21.00;75.50;;;;;;5053638;28;45347;-70
2023/09/26 00:42:43;;;;;;;1.67;1.67;;;21.00;75.60;;;;;;5062616;28;43974;-70
2023/09/26 00:45:12;;;;;;;1.50;1.50;;;21.00;75.90;;;;;;5062498;28;43469;-70
2023/09/26 00:47:44;;;;;;;1.43;1.43;;;21.00;75.60;;;;;;5050989;28;45759;-70
2023/09/26 00:50:13;;;;;;;1.60;1.60;;;21.10;75.30;;;;;;5057154;28;44705;-70
2023/09/26 00:52:42;;;;;;;1.63;1.63;;;21.30;74.80;;;;;;5061918;28;43382;-70
2023/09/26 00:55:11;;;;;;;1.40;1.40;;;21.40;74.40;;;;;;5060409;28;43950;-70
2023/09/26 00:57:39;;;;;;;1.60;1.60;;;21.40;74.20;;;;;;5058047;28;45498;-70
2023/09/26 01:00:14;;;;;;;1.30;1.30;;;21.40;74.20;;;;;;5057786;28;45016;-71
2023/09/26 01:02:43;;;;;;;1.73;1.73;;;21.30;74.40;;;;;;5071961;28;43551;-67
2023/09/26 01:05:12;;;;;;;2.00;2.00;;;21.20;74.80;;;;;;5051303;28;44079;-70
2023/09/26 01:07:40;;;;;;;1.63;1.63;;;21.20;75.00;;;;;;5060868;28;45416;-70
2023/09/26 01:10:08;;;;;;;1.43;1.43;;;21.20;75.00;;;;;;5062367;28;43661;-70
2023/09/26 01:12:38;;;;;;;1.60;1.60;;;21.10;75.00;;;;;;5086003;28;43930;-70
2023/09/26 01:15:07;;;;;;;1.40;1.40;;;21.10;75.20;;;;;;5085302;28;43690;-70
2023/09/26 01:17:37;;;;;;;1.50;1.50;;;21.00;75.50;;;;;;5059907;28;46006;-70
2023/09/26 01:20:11;;;;;;;1.50;1.50;;;21.10;75.50;;;;;;5061212;28;45030;-70
2023/09/26 01:22:40;;;;;;;1.70;1.70;;;21.20;75.20;;;;;;5052710;28;43480;-70
2023/09/26 01:25:10;;;;;;;1.70;1.70;;;21.20;75.00;;;;;;5062045;28;43663;-70
2023/09/26 01:27:38;;;;;;;1.50;1.50;;;21.20;74.90;;;;;;5062361;28;45716;-70
2023/09/26 01:30:08;;;;;;;1.70;1.70;;;21.10;75.10;;;;;;5076642;28;43371;-70
2023/09/26 01:32:37;;;;;;;1.70;1.70;;;21.10;75.10;;;;;;5084317;28;43464;-70
2023/09/26 01:35:06;;;;;;;1.47;1.47;;;21.20;75.20;;;;;;5074463;28;43415;-70
2023/09/26 01:37:34;;;;;;;1.57;1.57;;;21.10;75.00;;;;;;5083232;28;44008;-69
2023/09/26 01:40:09;;;;;;;1.77;1.77;;;21.10;75.80;;;;;;5060422;28;44978;-70
2023/09/26 01:42:39;;;;;;;1.60;1.60;;;21.00;75.40;;;;;;5087172;28;43934;-70
2023/09/26 01:45:09;;;;;;;1.50;1.50;;;21.10;75.40;;;;;;5066065;28;43352;-70
2023/09/26 01:47:41;;;;;;;1.50;1.50;;;21.10;75.10;;;;;;5055002;28;46140;-70
2023/09/26 01:50:10;;;;;;;1.60;1.60;;;21.20;74.80;;;;;;5051075;28;44909;-70
2023/09/26 01:52:38;;;;;;;1.60;1.60;;;21.20;74.70;;;;;;5083784;28;43420;-69
2023/09/26 01:55:07;;;;;;;1.60;1.60;;;21.20;74.80;;;;;;5059792;28;43792;-70
2023/09/26 01:57:35;;;;;;;1.60;1.60;;;21.20;75.00;;;;;;5076997;28;43873;-70
2023/09/26 02:00:10;;;;;;;1.53;1.53;;;21.20;75.70;;;;;;5063724;28;44059;-70
2023/09/26 02:02:39;;;;;;;1.40;1.40;;;21.20;75.00;;;;;;5082524;27;43492;-70
2023/09/26 02:05:08;;;;;;;1.43;1.43;;;21.10;75.00;;;;;;5066491;28;43514;-70
2023/09/26 02:07:36;;;;;;;1.37;1.37;;;21.10;75.30;;;;;;5059009;28;45706;-70
2023/09/26 02:10:06;;;;;;;1.40;1.40;;;21.10;75.40;;;;;;5083285;28;43488;-70
2023/09/26 02:12:36;;;;;;;1.50;1.50;;;21.00;75.20;;;;;;5070009;28;43491;-69
2023/09/26 02:15:08;;;;;;;1.37;1.37;;;21.00;75.20;;;;;;5067222;28;43340;-70
2023/09/26 02:17:36;;;;;;;1.50;1.50;;;21.00;75.30;;;;;;5056133;28;43616;-70
2023/09/26 02:20:10;;;;;;;1.37;1.37;;;21.00;75.70;;;;;;5060306;28;44749;-71
2023/09/26 02:22:39;;;;;;;1.67;1.67;;;21.00;75.40;;;;;;5047374;28;43607;-71
2023/09/26 02:25:07;;;;;;;1.50;1.50;;;21.10;75.10;;;;;;5071363;28;43887;-71
2023/09/26 02:27:35;;;;;;;1.50;1.50;;;21.20;74.60;;;;;;5068942;28;46471;-71
2023/09/26 02:30:06;;;;;;;1.40;1.40;;;21.40;74.30;;;;;;5070135;28;43492;-70
2023/09/26 02:32:34;;;;;;;1.63;1.63;;;21.40;74.10;;;;;;5079002;28;43392;-70
2023/09/26 02:35:02;;;;;;;1.60;1.60;;;21.30;74.10;;;;;;5069165;28;43444;-74
2023/09/26 02:37:30;;;;;;;1.50;1.50;;;21.30;74.40;;;;;;5064488;28;45908;-70
2023/09/26 02:39:58;;;;;;;1.93;1.93;;;21.20;74.70;;;;;;5059827;28;45164;-71
2023/09/26 02:42:26;;;;;;;1.67;1.67;;;21.20;74.80;;;;;;5061869;28;43499;-72
2023/09/26 02:44:54;;;;;;;1.60;1.60;;;21.20;74.90;;;;;;5060635;28;43532;-71
2023/09/26 02:47:24;;;;;;;1.40;1.40;;;21.10;74.90;;;;;;5067945;28;46157;-71
2023/09/26 02:49:52;;;;;;;1.40;1.40;;;21.10;75.10;;;;;;5074253;28;43832;-72
2023/09/26 02:52:20;;;;;;;1.37;1.37;;;21.00;75.30;;;;;;5064010;28;43468;-71
2023/09/26 02:54:48;;;;;;;1.43;1.43;;;21.00;75.20;;;;;;5067557;28;43352;-72
2023/09/26 02:57:16;;;;;;;1.33;1.33;;;21.00;75.20;;;;;;5062016;28;45748;-72
2023/09/26 02:59:46;;;;;;;1.50;1.50;;;21.00;75.30;;;;;;5063905;28;44383;-72
2023/09/26 03:02:14;;;;;;;1.70;1.70;;;21.00;75.40;;;;;;5064410;28;43471;-71
2023/09/26 03:04:47;;;;;;;1.23;1.23;;;20.90;75.60;;;;;;5066016;28;43474;-71
2023/09/26 03:07:15;;;;;;;1.30;1.30;;;21.00;75.40;;;;;;5067906;28;45855;-71
2023/09/26 03:09:43;;;;;;;1.40;1.40;;;21.10;75.00;;;;;;5061131;28;43722;-72
2023/09/26 03:12:11;;;;;;;1.40;1.40;;;21.30;74.60;;;;;;5067836;28;43466;-73
2023/09/26 03:14:40;;;;;;;1.30;1.30;;;21.40;74.10;;;;;;5086411;28;43446;-72
2023/09/26 03:17:08;;;;;;;1.30;1.30;;;21.40;73.90;;;;;;5064059;28;45964;-72
2023/09/26 03:19:36;;;;;;;1.37;1.37;;;21.40;74.00;;;;;;5064980;28;43658;-72
2023/09/26 03:22:06;;;;;;;1.40;1.40;;;21.30;74.10;;;;;;5065910;28;43877;-71
2023/09/26 03:24:34;;;;;;;1.70;1.70;;;21.20;74.60;;;;;;5087886;28;43487;-71
2023/09/26 03:27:02;;;;;;;1.33;1.33;;;21.20;74.70;;;;;;5062908;28;45674;-71
2023/09/26 03:29:30;;;;;;;1.47;1.47;;;21.10;74.70;;;;;;5071498;28;43789;-71
2023/09/26 03:31:58;;;;;;;1.40;1.40;;;21.10;74.80;;;;;;5063362;28;43418;-71
2023/09/26 03:34:28;;;;;;;1.60;1.60;;;21.10;75.00;;;;;;5050665;28;43618;-71
2023/09/26 03:36:56;;;;;;;1.30;1.30;;;21.00;75.30;;;;;;5045199;28;45494;-71
2023/09/26 03:39:26;;;;;;;1.47;1.47;;;21.00;75.30;;;;;;5034824;28;44466;-71
2023/09/26 03:41:55;;;;;;;1.50;1.50;;;21.00;75.30;;;;;;5062586;28;43854;-71
2023/09/26 03:44:23;;;;;;;1.50;1.50;;;21.00;75.20;;;;;;5083484;28;43455;-71
2023/09/26 03:46:51;;;;;;;1.53;1.53;;;21.00;75.30;;;;;;5078014;28;43931;-72
2023/09/26 03:49:19;;;;;;;1.43;1.43;;;20.90;75.50;;;;;;5088768;28;43348;-72
2023/09/26 03:51:47;;;;;;;1.53;1.53;;;21.00;75.40;;;;;;5070323;28;43451;-72
2023/09/26 03:54:15;;;;;;;1.30;1.30;;;21.00;75.00;;;;;;5078967;28;43427;-71
2023/09/26 03:56:45;;;;;;;1.67;1.67;;;21.10;74.70;;;;;;5084235;28;43611;-72
2023/09/26 03:59:12;;;;;;;1.57;1.57;;;21.20;74.70;;;;;;5080151;28;43393;-72
2023/09/26 04:01:40;;;;;;;1.40;1.40;;;21.20;74.80;;;;;;5079267;27;43460;-71
2023/09/26 04:04:08;;;;;;;1.50;1.50;;;21.10;74.90;;;;;;5080763;28;43443;-72
2023/09/26 04:06:38;;;;;;;1.40;1.40;;;21.10;74.70;;;;;;5083571;28;44402;-71
2023/09/26 04:09:07;;;;;;;1.60;1.60;;;21.10;74.70;;;;;;5067136;28;44367;-71
2023/09/26 04:11:35;;;;;;;1.60;1.60;;;21.10;74.80;;;;;;5079270;28;43959;-72
2023/09/26 04:14:05;;;;;;;1.40;1.40;;;21.10;74.90;;;;;;5064999;28;44104;-71
2023/09/26 04:16:33;;;;;;;1.40;1.40;;;21.00;75.20;;;;;;5080830;28;43611;-71
2023/09/26 04:19:01;;;;;;;1.70;1.70;;;21.00;75.00;;;;;;5085110;28;44194;-72
2023/09/26 04:21:30;;;;;;;1.40;1.40;;;21.20;74.80;;;;;;5080402;28;43446;-71
2023/09/26 04:23:59;;;;;;;1.50;1.50;;;21.20;74.40;;;;;;5088712;28;43480;-71
2023/09/26 04:26:27;;;;;;;1.40;1.40;;;21.20;74.30;;;;;;5082167;28;43620;-72
2023/09/26 04:28:55;;;;;;;1.60;1.50;;;21.20;74.50;;;;;;5081520;28;43429;-71
2023/09/26 04:31:24;;;;;;;1.43;1.43;;;21.20;74.70;;;;;;5081977;28;43383;-71
2023/09/26 04:33:53;;;;;;;1.63;1.63;;;21.20;74.60;;;;;;5063339;28;43631;-71
2023/09/26 04:36:21;;;;;;;1.40;1.40;;;21.20;74.60;;;;;;5079386;28;43583;-71
2023/09/26 04:38:49;;;;;;;1.43;1.43;;;21.10;74.60;;;;;;5085976;28;43816;-66
2023/09/26 04:41:17;;;;;;;1.63;1.63;;;21.10;74.80;;;;;;5064192;28;43367;-66
2023/09/26 04:43:45;;;;;;;1.50;1.50;;;21.10;75.10;;;;;;5088386;28;43429;-66
2023/09/26 04:46:13;;;;;;;1.47;1.47;;;21.10;74.80;;;;;;5068098;28;45356;-66
2023/09/26 04:48:43;;;;;;;1.50;1.50;;;21.20;74.60;;;;;;5089784;28;43396;-66
2023/09/26 04:51:12;;;;;;;1.50;1.50;;;21.20;74.50;;;;;;5082194;28;43443;-66
2023/09/26 04:53:40;;;;;;;1.60;1.60;;;21.20;74.60;;;;;;5087626;28;43752;-65
2023/09/26 04:56:08;;;;;;;1.30;1.30;;;21.10;74.70;;;;;;5086194;28;43592;-65
2023/09/26 04:58:37;;;;;;;1.70;1.70;;;21.10;74.60;;;;;;5081919;28;43366;-66
2023/09/26 05:01:12;;;;;;;1.20;1.20;;;21.10;74.60;;;;;;5068641;28;43986;-66
2023/09/26 05:03:43;;;;;;;1.50;1.50;;;21.10;74.70;;;;;;5080890;28;43353;-67
2023/09/26 05:06:12;;;;;;;1.33;1.33;;;21.10;75.00;;;;;;5078422;28;43595;-66
2023/09/26 05:08:40;;;;;;;1.40;1.40;;;21.00;75.00;;;;;;5087440;28;43834;-66
2023/09/26 05:11:13;;;;;;;1.40;1.40;;;21.00;74.90;;;;;;5088840;27;43463;-65
2023/09/26 05:13:42;;;;;;;1.33;1.33;;;21.00;74.80;;;;;;5089860;28;43356;-66
2023/09/26 05:16:10;;;;;;;1.50;1.50;;;21.00;74.80;;;;;;5092336;28;43932;-66
2023/09/26 05:18:39;;;;;;;1.40;1.40;;;21.00;75.10;;;;;;5089285;28;44002;-66
2023/09/26 05:21:08;;;;;;;1.60;1.53;;;21.00;75.10;;;;;;5088564;28;43404;-66
2023/09/26 05:23:36;;;;;;;1.60;1.60;;;21.10;74.90;;;;;;5090165;28;43558;-66
2023/09/26 05:26:09;;;;;;;1.50;1.50;;;21.20;74.50;;;;;;5091101;28;43894;-65
2023/09/26 05:28:37;;;;;;;1.53;1.53;;;21.30;74.00;;;;;;5085509;28;43429;-66
2023/09/26 05:31:05;;;;;;;1.47;1.47;;;21.40;73.80;;;;;;5086889;28;43440;-65
2023/09/26 05:33:33;;;;;;;1.40;1.40;;;21.30;73.70;;;;;;5090578;28;43725;-66
2023/09/26 05:36:04;;;;;;;1.30;1.30;;;21.30;73.80;;;;;;5071878;28;43810;-65
2023/09/26 05:38:33;;;;;;;1.67;1.67;;;21.20;74.00;;;;;;5091496;28;44062;-66
2023/09/26 05:41:01;;;;;;;1.47;1.47;;;21.20;74.50;;;;;;5087897;28;43426;-66
2023/09/26 05:43:29;;;;;;;1.50;1.50;;;21.20;74.50;;;;;;5090059;28;44068;-66
2023/09/26 05:45:58;;;;;;;1.40;1.40;;;21.10;74.50;;;;;;5089484;28;43783;-66
2023/09/26 05:48:29;;;;;;;1.40;1.40;;;21.10;74.60;;;;;;5091902;28;43462;-65
2023/09/26 05:51:00;;;;;;;1.70;1.70;;;21.00;74.70;;;;;;5082540;28;43431;-71
2023/09/26 05:53:29;;;;;;;1.60;1.60;;;21.00;75.00;;;;;;5082999;28;43414;-72
2023/09/26 05:56:01;;;;;;;1.83;1.73;;;21.00;75.00;;;;;;5077405;28;44957;-72
2023/09/26 05:58:29;;;;;;;1.70;1.70;;;21.00;75.00;;;;;;5080805;28;43435;-71
2023/09/26 06:00:57;;;;;;;1.90;1.90;;;21.00;75.00;;;;;;5086377;28;43448;-71
2023/09/26 06:03:26;;;;;;;1.87;1.87;;;20.90;75.20;;;;;;5085440;27;43523;-71
2023/09/26 06:05:55;;;;;;;2.00;2.00;;;20.90;75.00;;;;;;5084945;28;43710;-71
2023/09/26 06:08:23;;;;;;;2.07;2.03;;;21.00;74.60;;;;;;5085230;28;43359;-72
2023/09/26 06:10:53;;;;;;;1.83;1.83;;;21.20;74.40;;;;;;5084927;28;43438;-71
2023/09/26 06:13:23;;;;;;;2.17;2.07;;;21.30;73.90;;;;;;5086899;28;43491;-72
2023/09/26 06:15:51;;;;;;;2.10;2.10;;;21.30;73.60;;;;;;5082311;28;43600;-71
2023/09/26 06:18:19;;;;;;;2.17;2.17;;;21.30;73.60;;;;;;5085996;28;43380;-72
2023/09/26 06:20:47;;;;;;;1.93;1.83;;;21.20;73.80;;;;;;5088839;28;43745;-71
2023/09/26 06:23:15;;;;;;;2.20;2.20;;;21.20;74.10;;;;;;5089289;28;43436;-71
2023/09/26 06:25:43;;;;;;;2.67;2.63;;;21.10;74.40;;;;;;5084038;28;44148;-72
2023/09/26 06:28:24;;;;;;;2.20;2.20;;;21.10;74.50;;;;;;5086101;28;43956;-71
2023/09/26 06:30:53;;;;;;;2.13;2.13;;;21.10;74.50;;;;;;5087791;28;43483;-72
2023/09/26 06:33:21;;;;;;;2.10;2.10;;;21.00;74.60;;;;;;5082548;28;43491;-72
2023/09/26 06:35:49;;;;;;;2.37;2.33;;;21.00;74.70;;;;;;5084073;28;45553;-73
2023/09/26 06:38:17;;;;;;;2.40;2.30;;;20.90;75.00;;;;;;5066227;28;44807;-72
2023/09/26 06:40:45;;;;;;;2.07;2.07;;;20.90;74.90;;;;;;5063992;28;43423;-72
2023/09/26 06:43:13;;;;;;;2.20;2.20;;;20.90;74.90;;;;;;5065335;28;44103;-72
2023/09/26 06:45:42;;;;;;;2.33;2.33;;;20.90;74.90;;;;;;5061736;28;45754;-72
2023/09/26 06:48:11;;;;;;;2.53;2.47;;;20.90;75.00;;;;;;5085685;28;43407;-73
2023/09/26 06:50:43;;;;;;;2.37;2.30;;;20.90;75.30;;;;;;5082744;28;43413;-72
2023/09/26 06:53:11;;;;;;;2.50;2.47;;;20.90;74.90;;;;;;5081686;28;43440;-72
2023/09/26 06:55:40;;;;;;;2.43;2.33;;;21.00;74.60;;;;;;5068915;28;45755;-72
2023/09/26 06:58:08;;;;;;;2.40;2.40;;;21.10;74.10;;;;;;5077915;28;43412;-72
2023/09/26 07:00:37;;;;;;;2.10;2.10;;;21.20;74.10;;;;;;5087408;28;43981;-66
2023/09/26 07:03:07;;;;;;;2.53;2.53;;;21.20;74.80;;;;;;5053748;28;43641;-66
2023/09/26 07:05:35;;;;;;;2.50;2.50;;;21.10;74.30;;;;;;5079786;28;43750;-66
2023/09/26 07:08:04;;;;;;;2.50;2.40;;;21.10;74.20;;;;;;5067963;28;44794;-67
2023/09/26 07:10:37;;;;;;;2.77;2.67;;;21.10;74.20;;;;;;5085096;28;43382;-66
2023/09/26 07:13:05;;;;;;;3.00;2.80;;;21.10;74.30;;;;;;5087940;28;43430;-66
2023/09/26 07:15:44;;;;;;;5.07;3.40;;;21.00;74.40;;;;;;5068972;28;45708;-68
2023/09/26 07:18:13;;;;;;;5.47;4.10;;;21.00;74.90;;;;;;5087197;28;43439;-65
2023/09/26 07:20:46;;;;;;;3.87;3.43;;;21.00;74.80;;;;;;5071838;28;43470;-65
2023/09/26 07:23:14;;;;;;;4.27;3.70;;;21.00;74.70;;;;;;5091612;28;43411;-65
2023/09/26 07:25:42;;;;;;;4.00;3.67;;;21.00;75.50;;;;;;5075273;28;43903;-65
2023/09/26 07:28:10;;;;;;;5.27;3.93;;;20.90;74.80;;;;;;5092477;28;43419;-66
2023/09/26 07:30:38;;;;;;;5.97;4.60;;;20.90;75.20;;;;;;5087125;28;43415;-66
2023/09/26 07:33:06;;;;;;;6.43;4.20;;;20.90;75.00;;;;;;5087528;28;44433;-66
2023/09/26 07:35:36;;;;;;;6.77;4.27;;;21.00;74.70;;;;;;5087118;28;43686;-66
2023/09/26 07:38:04;;;;;;;6.67;4.20;;;21.20;74.50;;;;;;5072746;28;44694;-66
2023/09/26 07:40:32;;;;;;;6.83;4.70;;;21.30;74.00;;;;;;5086835;28;43444;-66
2023/09/26 07:43:01;;;;;;;4.40;4.00;;;21.30;73.70;;;;;;5087162;28;43463;-66
2023/09/26 07:45:29;;;;;;;5.23;4.20;;;21.30;73.70;;;;;;5084840;28;44001;-67
2023/09/26 07:47:57;;;;;;;4.97;4.43;;;21.20;73.90;;;;;;5087792;28;43353;-66
2023/09/26 07:50:25;;;;;;;5.40;4.57;;;21.20;74.20;;;;;;5086499;28;43397;-67
2023/09/26 07:52:54;;;;;;;4.57;3.97;;;21.10;74.50;;;;;;5085274;28;43402;-66
2023/09/26 07:55:24;;;;;;;5.83;4.23;;;21.00;74.50;;;;;;5084353;28;43603;-66
2023/09/26 07:57:52;;;;;;;4.33;4.03;;;21.00;74.60;;;;;;5084814;28;43466;-65
2023/09/26 08:00:21;;;;;;;6.03;4.10;;;21.00;74.70;;;;;;5083102;28;43348;-65
2023/09/26 08:02:49;;;;;;;5.20;4.20;;;20.90;74.90;;;;;;5070637;28;43463;-66
2023/09/26 08:05:17;;;;;;;4.40;4.00;;;20.90;75.20;;;;;;5074607;28;43533;-66
2023/09/26 08:07:45;;;;;;;6.17;4.03;;;20.90;75.00;;;;;;5078488;28;43352;-66
2023/09/26 08:10:14;;;;;;;4.33;3.90;;;20.90;75.00;;;;;;5083628;28;43414;-69
2023/09/26 08:12:42;;;;;;;4.67;4.27;;;20.90;75.10;;;;;;5065154;28;43520;-70
2023/09/26 08:15:11;;;;;;;4.03;3.67;;;20.90;75.30;;;;;;5066714;28;43915;-70
2023/09/26 08:17:39;;;;;;;5.17;4.20;;;20.90;75.60;;;;;;5073347;28;43535;-69
2023/09/26 08:20:08;;;;;;;4.13;3.80;;;20.90;75.20;;;;;;5058816;28;43515;-70
2023/09/26 08:22:37;;;;;;;4.50;4.10;;;21.00;74.80;;;;;;5073706;28;43438;-69
2023/09/26 08:25:07;;;;;;;4.33;3.93;;;21.20;74.40;;;;;;5087480;28;43859;-70
2023/09/26 08:27:37;;;;;;;4.70;4.30;;;21.20;73.90;;;;;;5083511;28;43365;-70
2023/09/26 08:30:06;;;;;;;5.30;3.93;;;21.30;73.90;;;;;;5086212;28;44023;-70
2023/09/26 08:32:34;;;;;;;5.00;3.47;;;21.20;73.90;;;;;;5072908;28;43471;-70
2023/09/26 08:35:04;;;;;;;4.33;3.93;;;21.20;74.20;;;;;;5081918;28;43849;-70
2023/09/26 08:37:34;;;;;;;4.50;4.13;;;21.10;74.60;;;;;;5081594;28;43892;-70
2023/09/26 08:40:03;;;;;;;4.80;4.33;;;21.10;74.80;;;;;;5086361;28;43410;-69
2023/09/26 08:42:36;;;;;;;4.63;4.20;;;21.10;74.80;;;;;;5082569;28;43393;-69
2023/09/26 08:45:06;;;;;;;4.00;3.70;;;21.00;74.80;;;;;;5080141;28;43912;-69
2023/09/26 08:47:39;;;;;;;7.63;4.10;;;21.00;75.00;;;;;;5084450;28;43460;-69
2023/09/26 08:50:08;;;;;;;5.10;4.10;;;20.90;75.40;;;;;;5080333;28;43429;-69
2023/09/26 08:52:36;;;;;;;4.03;3.70;;;20.90;75.30;;;;;;5074813;28;43321;-69
2023/09/26 08:55:04;;;;;;;3.90;3.57;;;21.00;75.00;;;;;;5080427;28;43914;-69
2023/09/26 08:57:33;;;;;;;4.80;4.40;;;21.10;74.80;;;;;;5079744;28;43452;-69
2023/09/26 09:00:02;;;;;;;4.40;4.00;;;21.10;74.70;;;;;;5065849;28;43893;-69
2023/09/26 09:02:32;;;;;;;3.70;3.40;;;21.10;74.80;;;;;;5082813;28;43455;-69
2023/09/26 09:05:00;;;;;;;4.40;4.00;;;21.00;75.60;;;;;;5078349;28;43881;-69
2023/09/26 09:07:30;;;;;;;3.77;3.53;;;21.10;74.90;;;;;;5082521;28;43976;-69
2023/09/26 09:10:05;;;;;;;3.70;3.40;;;21.00;74.90;;;;;;5079732;28;44138;-71
2023/09/26 09:12:34;;;;;;;4.10;3.70;;;21.00;75.00;;;;;;5060250;28;43535;-71
2023/09/26 09:15:06;;;;;;;4.43;4.10;;;20.90;75.10;;;;;;5067435;28;43708;-71
2023/09/26 09:17:41;;;;;;;3.63;3.33;;;20.90;75.40;;;;;;5081799;28;43435;-71
2023/09/26 09:20:10;;;;;;;4.10;3.80;;;20.90;75.30;;;;;;5083657;28;43992;-66
2023/09/26 09:22:38;;;;;;;4.57;3.90;;;20.90;75.30;;;;;;5091570;28;43586;-66
2023/09/26 09:25:07;;;;;;;3.93;3.60;;;20.90;75.30;;;;;;5086636;28;43886;-66
2023/09/26 09:27:38;;;;;;;3.90;3.67;;;20.90;75.40;;;;;;5084849;28;44997;-66
2023/09/26 09:30:08;;;;;;;4.10;3.80;;;20.90;75.90;;;;;;5081457;28;43431;-66
2023/09/26 09:32:36;;;;;;;8.60;4.50;;;20.90;75.60;;;;;;5072816;28;43681;-65
2023/09/26 09:35:08;;;;;;;7.33;3.93;;;21.00;73.20;;;;;;5085501;28;44101;-66
2023/09/26 09:37:36;;;;;;;5.73;4.20;;;21.10;73.50;;;;;;5084081;28;43465;-67
2023/09/26 09:40:05;;;;;;;4.17;3.77;;;21.20;73.80;;;;;;5087579;28;43994;-66
2023/09/26 09:42:33;;;;;;;6.20;3.70;;;21.20;73.90;;;;;;5089135;28;43544;-66
2023/09/26 09:45:04;;;;;;;3.83;3.53;;;21.20;74.30;;;;;;5085018;28;44023;-66
2023/09/26 09:47:32;;;;;;;5.30;3.77;;;21.10;74.50;;;;;;5078513;28;43511;-66
2023/09/26 09:50:00;;;;;;;6.33;4.30;;;21.10;74.80;;;;;;5080954;28;43920;-66
2023/09/26 09:52:31;;;;;;;3.37;3.27;;;21.00;74.90;;;;;;5091866;28;43439;-67
2023/09/26 09:54:59;;;;;;;5.73;3.93;;;21.00;75.00;;;;;;5084362;28;43896;-66
2023/09/26 09:57:28;;;;;;;3.23;3.03;;;21.00;75.10;;;;;;5091950;27;43439;-66
2023/09/26 09:59:56;;;;;;;4.07;3.53;;;21.00;75.30;;;;;;5092278;28;44024;-66
2023/09/26 10:02:24;;;;;;;4.07;3.60;;;20.90;75.50;;;;;;5091851;27;43558;-66
2023/09/26 10:04:55;;;;;;;3.33;3.13;;;20.90;75.40;;;;;;5089170;28;43839;-66
2023/09/26 10:07:24;;;;;;;3.40;3.20;;;20.90;75.50;;;;;;5088641;28;43874;-66
2023/09/26 10:09:53;;;;;;;3.40;3.20;;;20.90;75.50;;;;;;5084929;28;43362;-68
2023/09/26 10:12:23;;;;;;;3.30;3.20;;;20.90;75.60;;;;;;5085871;28;43376;-67
2023/09/26 10:14:51;;;;;;;5.13;3.70;;;20.90;75.90;;;;;;5091934;28;43862;-66
2023/09/26 10:17:19;;;;;;;3.43;3.23;;;20.90;75.60;;;;;;5093560;28;43403;-66
2023/09/26 10:19:47;;;;;;;3.73;3.43;;;21.00;75.20;;;;;;5084258;28;43462;-67
2023/09/26 10:22:35;;;;;;;3.93;3.63;;;21.20;74.90;;;;;;5085044;28;43397;-66
2023/09/26 10:25:07;;;;;;;3.70;3.40;;;21.20;74.30;;;;;;5073420;28;45664;-65
2023/09/26 10:27:42;;;;;;;3.67;3.40;;;21.20;74.40;;;;;;5089778;28;43510;-65
2023/09/26 10:30:25;;;;;;;3.33;3.23;;;21.20;74.60;;;;;;5086060;28;43404;-66
2023/09/26 10:32:54;;;;;;;3.73;3.43;;;21.20;74.90;;;;;;5081546;28;43416;-66
2023/09/26 10:35:28;;;;;;;3.67;3.43;;;21.10;75.10;;;;;;5089841;28;44384;-66
2023/09/26 10:38:03;;;;;;;3.20;3.00;;;21.10;75.10;;;;;;5083124;28;43378;-66
2023/09/26 10:40:32;;;;;;;3.63;3.30;;;21.10;75.30;;;;;;5073573;28;43390;-65
2023/09/26 10:43:00;;;;;;;3.07;2.90;;;21.10;75.40;;;;;;5084915;28;43432;-66
2023/09/26 10:45:49;;;;;;;3.40;3.10;;;21.00;75.50;;;;;;5078474;28;43878;-65
2023/09/26 10:48:21;;;;;;;2.87;2.77;;;21.00;75.70;;;;;;5070499;28;44691;-65
2023/09/26 10:50:49;;;;;;;3.40;3.20;;;21.00;75.60;;;;;;5081142;28;43468;-67
2023/09/26 10:53:18;;;;;;;3.63;3.43;;;21.00;75.70;;;;;;5080132;28;43419;-66
2023/09/26 10:55:48;;;;;;;3.20;3.10;;;21.00;75.80;;;;;;5076182;28;43885;-67
2023/09/26 10:58:20;;;;;;;3.70;3.50;;;21.00;75.90;;;;;;5091609;28;43453;-70
2023/09/26 11:00:51;;;;;;;3.40;3.20;;;20.90;75.90;;;;;;5087599;28;43423;-66
2023/09/26 11:03:20;;;;;;;3.40;3.20;;;21.00;75.60;;;;;;5090822;27;43413;-66
2023/09/26 11:05:48;;;;;;;3.00;2.90;;;21.10;75.20;;;;;;5081832;28;43694;-66
2023/09/26 11:08:19;;;;;;;3.60;3.40;;;21.20;74.90;;;;;;5080650;27;43474;-68
2023/09/26 11:11:08;;;;;;;2.77;2.67;;;21.30;74.30;;;;;;5093269;28;43944;-66
2023/09/26 11:13:36;;;;;;;3.33;3.13;;;21.40;75.10;;;;;;5081293;28;43436;-65
2023/09/26 11:16:05;;;;;;;3.00;2.90;;;21.30;74.40;;;;;;5085845;28;43700;-67
2023/09/26 11:18:33;;;;;;;3.13;2.93;;;21.30;74.70;;;;;;5082070;28;43421;-66
2023/09/26 11:21:01;;;;;;;3.00;2.90;;;21.20;75.00;;;;;;5084939;28;43447;-66
2023/09/26 11:23:49;;;;;;;2.90;2.80;;;21.20;75.00;;;;;;5087445;28;43391;-67
2023/09/26 11:26:18;;;;;;;3.00;2.90;;;21.20;75.30;;;;;;5064666;28;45706;-69
2023/09/26 11:28:46;;;;;;;2.63;2.53;;;21.10;75.30;;;;;;5077556;28;43467;-66
2023/09/26 11:31:15;;;;;;;2.80;2.70;;;21.10;75.50;;;;;;5077633;28;43379;-66
2023/09/26 11:33:44;;;;;;;2.70;2.60;;;21.10;75.60;;;;;;5069162;28;43496;-66
2023/09/26 11:36:12;;;;;;;2.80;2.70;;;21.10;75.60;;;;;;5085400;28;43614;-66
2023/09/26 11:38:47;;;;;;;2.83;2.70;;;21.10;76.40;;;;;;5085513;28;43757;-66
2023/09/26 11:41:15;;;;;;;3.07;2.87;;;21.00;75.70;;;;;;5108361;28;43407;-70
2023/09/26 11:43:47;;;;;;;3.20;3.00;;;21.00;75.80;;;;;;5091279;28;44088;-70
2023/09/26 11:46:16;;;;;;;3.20;2.90;;;21.00;75.40;;;;;;5101247;28;43635;-70
2023/09/26 11:48:44;;;;;;;3.40;3.20;;;21.00;75.20;;;;;;5075002;28;45063;-70
2023/09/26 11:51:12;;;;;;;3.60;3.30;;;21.10;74.90;;;;;;5077164;28;43539;-70
2023/09/26 11:53:40;;;;;;;3.50;3.20;;;21.20;74.50;;;;;;5076401;28;43455;-70
2023/09/26 11:56:08;;;;;;;3.77;3.00;;;21.30;74.10;;;;;;5103969;28;46211;-70
2023/09/26 11:58:37;;;;;;;3.03;2.83;;;21.30;74.30;;;;;;5076228;28;44738;-70
2023/09/26 12:01:06;;;;;;;3.20;3.00;;;21.30;74.50;;;;;;5098146;28;43390;-70
2023/09/26 12:03:34;;;;;;;2.93;2.83;;;21.20;74.70;;;;;;5104183;28;43382;-70
2023/09/26 12:06:02;;;;;;;3.90;3.60;;;21.20;75.00;;;;;;5105144;28;43831;-70
2023/09/26 12:08:30;;;;;;;3.20;3.00;;;21.10;74.90;;;;;;5095710;28;43348;-70
2023/09/26 12:10:58;;;;;;;3.10;2.90;;;21.10;75.10;;;;;;5094144;28;43399;-70
2023/09/26 12:13:27;;;;;;;3.03;2.93;;;21.10;75.30;;;;;;5093215;28;43536;-70
2023/09/26 12:15:56;;;;;;;2.93;2.83;;;21.10;75.40;;;;;;5089669;28;43853;-70
2023/09/26 12:18:26;;;;;;;3.53;3.20;;;21.10;75.60;;;;;;5077474;28;44028;-69
2023/09/26 12:20:55;;;;;;;3.37;3.03;;;21.00;75.40;;;;;;5092387;28;43346;-69
2023/09/26 12:23:24;;;;;;;2.70;2.60;;;21.10;75.70;;;;;;5094304;28;43435;-69
2023/09/26 12:25:52;;;;;;;3.00;2.90;;;21.00;75.60;;;;;;5091482;28;43858;-69
2023/09/26 12:28:21;;;;;;;2.73;2.63;;;21.00;75.70;;;;;;5109718;28;45329;-70
2023/09/26 12:30:50;;;;;;;2.83;2.73;;;21.00;75.70;;;;;;5096715;28;44173;-69
2023/09/26 12:33:18;;;;;;;2.73;2.60;;;21.00;75.80;;;;;;5078451;28;43494;-70
2023/09/26 12:35:47;;;;;;;3.10;3.00;;;21.00;75.90;;;;;;5093946;28;43844;-69
2023/09/26 12:38:15;;;;;;;2.90;2.73;;;21.00;75.90;;;;;;5075482;28;44872;-69
2023/09/26 12:40:44;;;;;;;2.63;2.53;;;21.00;76.60;;;;;;5077289;28;43383;-69
2023/09/26 12:43:12;;;;;;;2.90;2.80;;;21.00;76.00;;;;;;5094597;28;43426;-70
2023/09/26 12:45:40;;;;;;;3.17;2.97;;;21.00;76.10;;;;;;5094863;28;43934;-70
2023/09/26 12:48:08;;;;;;;3.00;2.80;;;21.10;75.90;;;;;;5092149;28;43507;-70
2023/09/26 12:50:36;;;;;;;3.00;2.80;;;21.20;75.50;;;;;;5078288;28;43837;-67
2023/09/26 12:53:06;;;;;;;2.40;2.20;;;21.30;75.00;;;;;;5078661;28;43432;-66
2023/09/26 12:55:34;;;;;;;3.73;2.27;;;21.40;74.70;;;;;;5088383;28;43801;-67
2023/09/26 12:58:03;;;;;;;3.43;3.20;;;21.40;74.70;;;;;;5080210;28;43665;-66